sensor_id;sensor_type;location;lat;lon;timestamp;temperature;humidity
6439;DHT22;3252;52.540;13.290;2022-11-03T00:00:12;8.50;99.90
6439;DHT22;3252;52.540;13.290;2022-11-03T00:02:14;8.40;99.90
6439;DHT22;3252;52.540;13.290;2022-11-03T00:04:19;8.40;99.90
6439;DHT22;3252;52.540;13.290;2022-11-03T00:06:21;8.40;99.90
6439;DHT22;3252;52.540;13.290;2022-11-03T00:08:22;8.40;99.90
6439;DHT22;3252;52.540;13.290;2022-11-03T00:10:24;8.40;99.90
6439;DHT22;3252;52.540;13.290;2022-11-03T00:12:26;8.40;99.90
6439;DHT22;3252;52.540;13.290;2022-11-03T00:14:28;8.40;99.90
6439;DHT22;3252;52.540;13.290;2022-11-03T00:16:30;8.40;99.90
6439;DHT22;3252;52.540;13.290;2022-11-03T00:18:33;8.40;99.90
6439;DHT22;3252;52.540;13.290;2022-11-03T00:20:36;8.40;99.90
6439;DHT22;3252;52.540;13.290;2022-11-03T00:22:38;8.30;99.90
6439;DHT22;3252;52.540;13.290;2022-11-03T00:24:40;8.30;99.90
6439;DHT22;3252;52.540;13.290;2022-11-03T00:26:42;8.30;99.90
6439;DHT22;3252;52.540;13.290;2022-11-03T00:28:46;8.20;99.90
6439;DHT22;3252;52.540;13.290;2022-11-03T00:30:48;8.20;99.90
6439;DHT22;3252;52.540;13.290;2022-11-03T00:32:50;8.10;99.90
6439;DHT22;3252;52.540;13.290;2022-11-03T00:34:52;8.10;99.90
6439;DHT22;3252;52.540;13.290;2022-11-03T00:36:55;8.10;99.90
6439;DHT22;3252;52.540;13.290;2022-11-03T00:38:57;8.10;99.90
6439;DHT22;3252;52.540;13.290;2022-11-03T00:41:01;8.10;99.90
6439;DHT22;3252;52.540;13.290;2022-11-03T00:43:03;8.10;99.90
6439;DHT22;3252;52.540;13.290;2022-11-03T00:45:06;8.10;99.90
6439;DHT22;3252;52.540;13.290;2022-11-03T00:47:08;8.00;99.90
6439;DHT22;3252;52.540;13.290;2022-11-03T00:49:10;8.00;99.90
6439;DHT22;3252;52.540;13.290;2022-11-03T00:51:14;8.00;99.90
6439;DHT22;3252;52.540;13.290;2022-11-03T00:53:18;8.10;99.90
6439;DHT22;3252;52.540;13.290;2022-11-03T00:55:20;8.10;99.90
6439;DHT22;3252;52.540;13.290;2022-11-03T00:57:22;8.10;99.90
6439;DHT22;3252;52.540;13.290;2022-11-03T00:59:23;8.00;99.90
6439;DHT22;3252;52.540;13.290;2022-11-03T01:01:27;8.00;99.90
6439;DHT22;3252;52.540;13.290;2022-11-03T01:03:32;8.00;99.90
6439;DHT22;3252;52.540;13.290;2022-11-03T01:05:39;8.00;99.90
6439;DHT22;3252;52.540;13.290;2022-11-03T01:07:58;8.00;99.90
6439;DHT22;3252;52.540;13.290;2022-11-03T01:10:02;7.90;99.90
6439;DHT22;3252;52.540;13.290;2022-11-03T01:12:07;7.90;99.90
6439;DHT22;3252;52.540;13.290;2022-11-03T01:14:11;7.90;99.90
6439;DHT22;3252;52.540;13.290;2022-11-03T01:16:13;7.90;99.90
6439;DHT22;3252;52.540;13.290;2022-11-03T01:18:15;7.80;99.90
6439;DHT22;3252;52.540;13.290;2022-11-03T01:20:17;7.80;99.90
6439;DHT22;3252;52.540;13.290;2022-11-03T01:22:20;7.80;99.90
6439;DHT22;3252;52.540;13.290;2022-11-03T01:24:23;7.80;99.90
6439;DHT22;3252;52.540;13.290;2022-11-03T01:26:26;7.80;99.90
6439;DHT22;3252;52.540;13.290;2022-11-03T01:28:28;7.70;99.90
6439;DHT22;3252;52.540;13.290;2022-11-03T01:30:32;7.70;99.90
6439;DHT22;3252;52.540;13.290;2022-11-03T01:32:33;7.70;99.90
6439;DHT22;3252;52.540;13.290;2022-11-03T01:34:36;7.70;99.90
6439;DHT22;3252;52.540;13.290;2022-11-03T01:36:38;7.70;99.90
6439;DHT22;3252;52.540;13.290;2022-11-03T01:38:41;7.70;99.90
6439;DHT22;3252;52.540;13.290;2022-11-03T01:40:43;7.70;99.90
6439;DHT22;3252;52.540;13.290;2022-11-03T01:42:47;7.70;99.90
6439;DHT22;3252;52.540;13.290;2022-11-03T01:44:49;7.70;99.90
6439;DHT22;3252;52.540;13.290;2022-11-03T01:46:54;7.70;99.90
6439;DHT22;3252;52.540;13.290;2022-11-03T01:49:02;7.70;99.90
6439;DHT22;3252;52.540;13.290;2022-11-03T01:51:06;7.60;99.90
6439;DHT22;3252;52.540;13.290;2022-11-03T01:53:10;7.60;99.90
6439;DHT22;3252;52.540;13.290;2022-11-03T01:55:16;7.60;99.90
6439;DHT22;3252;52.540;13.290;2022-11-03T01:57:23;7.60;99.90
6439;DHT22;3252;52.540;13.290;2022-11-03T01:59:27;7.70;99.90
6439;DHT22;3252;52.540;13.290;2022-11-03T02:01:30;7.70;99.90
6439;DHT22;3252;52.540;13.290;2022-11-03T02:03:36;7.70;99.90
6439;DHT22;3252;52.540;13.290;2022-11-03T02:05:40;7.70;99.90
6439;DHT22;3252;52.540;13.290;2022-11-03T02:07:48;7.70;99.90
6439;DHT22;3252;52.540;13.290;2022-11-03T02:09:51;7.80;99.90
6439;DHT22;3252;52.540;13.290;2022-11-03T02:11:54;7.80;99.90
6439;DHT22;3252;52.540;13.290;2022-11-03T02:14:10;7.90;99.90
6439;DHT22;3252;52.540;13.290;2022-11-03T02:16:13;7.90;99.90
6439;DHT22;3252;52.540;13.290;2022-11-03T02:18:18;7.90;99.90
6439;DHT22;3252;52.540;13.290;2022-11-03T02:20:22;7.90;99.90
6439;DHT22;3252;52.540;13.290;2022-11-03T02:22:35;8.00;99.90
6439;DHT22;3252;52.540;13.290;2022-11-03T02:24:47;7.90;99.90
6439;DHT22;3252;52.540;13.290;2022-11-03T02:26:53;7.90;99.90
6439;DHT22;3252;52.540;13.290;2022-11-03T02:28:58;7.90;99.90
6439;DHT22;3252;52.540;13.290;2022-11-03T02:31:07;7.90;99.90
6439;DHT22;3252;52.540;13.290;2022-11-03T02:33:26;7.90;99.90
6439;DHT22;3252;52.540;13.290;2022-11-03T02:35:33;7.90;99.90
6439;DHT22;3252;52.540;13.290;2022-11-03T02:37:41;7.90;99.90
6439;DHT22;3252;52.540;13.290;2022-11-03T02:39:49;7.90;99.90
6439;DHT22;3252;52.540;13.290;2022-11-03T02:41:56;7.90;99.90
6439;DHT22;3252;52.540;13.290;2022-11-03T02:44:01;7.90;99.90
6439;DHT22;3252;52.540;13.290;2022-11-03T02:46:05;7.90;99.90
6439;DHT22;3252;52.540;13.290;2022-11-03T02:48:08;7.90;99.90
6439;DHT22;3252;52.540;13.290;2022-11-03T02:50:10;7.90;99.90
6439;DHT22;3252;52.540;13.290;2022-11-03T02:52:37;7.90;99.90
6439;DHT22;3252;52.540;13.290;2022-11-03T02:54:43;7.90;99.90
6439;DHT22;3252;52.540;13.290;2022-11-03T02:56:49;7.80;99.90
6439;DHT22;3252;52.540;13.290;2022-11-03T02:58:57;7.80;99.90
6439;DHT22;3252;52.540;13.290;2022-11-03T03:01:03;7.80;99.90
6439;DHT22;3252;52.540;13.290;2022-11-03T03:03:15;7.80;99.90
6439;DHT22;3252;52.540;13.290;2022-11-03T03:05:18;7.80;99.90
6439;DHT22;3252;52.540;13.290;2022-11-03T03:07:23;7.80;99.90
6439;DHT22;3252;52.540;13.290;2022-11-03T03:09:30;7.80;99.90
6439;DHT22;3252;52.540;13.290;2022-11-03T03:11:35;7.70;99.90
6439;DHT22;3252;52.540;13.290;2022-11-03T03:13:40;7.70;99.90
6439;DHT22;3252;52.540;13.290;2022-11-03T03:15:49;7.70;99.90
6439;DHT22;3252;52.540;13.290;2022-11-03T03:18:00;7.70;99.90
6439;DHT22;3252;52.540;13.290;2022-11-03T03:20:07;7.70;99.90
6439;DHT22;3252;52.540;13.290;2022-11-03T03:22:21;7.70;99.90
6439;DHT22;3252;52.540;13.290;2022-11-03T03:24:30;7.60;99.90
6439;DHT22;3252;52.540;13.290;2022-11-03T03:26:37;7.60;99.90
6439;DHT22;3252;52.540;13.290;2022-11-03T03:28:44;7.60;99.90
6439;DHT22;3252;52.540;13.290;2022-11-03T03:30:51;7.60;99.90
6439;DHT22;3252;52.540;13.290;2022-11-03T03:32:55;7.60;99.90
6439;DHT22;3252;52.540;13.290;2022-11-03T03:35:00;7.60;99.90
6439;DHT22;3252;52.540;13.290;2022-11-03T03:37:04;7.50;99.90
6439;DHT22;3252;52.540;13.290;2022-11-03T03:39:09;7.50;99.90
6439;DHT22;3252;52.540;13.290;2022-11-03T03:41:13;7.50;99.90
6439;DHT22;3252;52.540;13.290;2022-11-03T03:43:22;7.50;99.90
6439;DHT22;3252;52.540;13.290;2022-11-03T03:45:25;7.50;99.90
6439;DHT22;3252;52.540;13.290;2022-11-03T03:47:31;7.50;99.90
6439;DHT22;3252;52.540;13.290;2022-11-03T03:49:33;7.60;99.90
6439;DHT22;3252;52.540;13.290;2022-11-03T03:51:35;7.60;99.90
6439;DHT22;3252;52.540;13.290;2022-11-03T03:53:38;7.60;99.90
6439;DHT22;3252;52.540;13.290;2022-11-03T03:55:42;7.60;99.90
6439;DHT22;3252;52.540;13.290;2022-11-03T03:57:45;7.60;99.90
6439;DHT22;3252;52.540;13.290;2022-11-03T03:59:47;7.60;99.90
6439;DHT22;3252;52.540;13.290;2022-11-03T04:01:49;7.60;99.90
6439;DHT22;3252;52.540;13.290;2022-11-03T04:03:52;7.60;99.90
6439;DHT22;3252;52.540;13.290;2022-11-03T04:05:54;7.60;99.90
6439;DHT22;3252;52.540;13.290;2022-11-03T04:07:57;7.60;99.90
6439;DHT22;3252;52.540;13.290;2022-11-03T04:09:58;7.60;99.90
6439;DHT22;3252;52.540;13.290;2022-11-03T04:12:00;7.60;99.90
6439;DHT22;3252;52.540;13.290;2022-11-03T04:14:21;7.60;99.90
6439;DHT22;3252;52.540;13.290;2022-11-03T04:16:41;7.50;99.90
6439;DHT22;3252;52.540;13.290;2022-11-03T04:19:16;7.60;99.90
6439;DHT22;3252;52.540;13.290;2022-11-03T04:21:35;7.60;99.90
6439;DHT22;3252;52.540;13.290;2022-11-03T04:23:55;7.60;99.90
6439;DHT22;3252;52.540;13.290;2022-11-03T04:25:58;7.60;99.90
6439;DHT22;3252;52.540;13.290;2022-11-03T04:28:01;7.60;99.90
6439;DHT22;3252;52.540;13.290;2022-11-03T04:30:12;7.60;99.90
6439;DHT22;3252;52.540;13.290;2022-11-03T04:32:16;7.60;99.90
6439;DHT22;3252;52.540;13.290;2022-11-03T04:34:19;7.50;99.90
6439;DHT22;3252;52.540;13.290;2022-11-03T04:36:24;7.50;99.90
6439;DHT22;3252;52.540;13.290;2022-11-03T04:38:26;7.50;99.90
6439;DHT22;3252;52.540;13.290;2022-11-03T04:40:30;7.50;99.90
6439;DHT22;3252;52.540;13.290;2022-11-03T04:42:34;7.50;99.90
6439;DHT22;3252;52.540;13.290;2022-11-03T04:44:36;7.50;99.90
6439;DHT22;3252;52.540;13.290;2022-11-03T04:46:38;7.50;99.90
6439;DHT22;3252;52.540;13.290;2022-11-03T04:48:40;7.60;99.90
6439;DHT22;3252;52.540;13.290;2022-11-03T04:50:44;7.60;99.90
6439;DHT22;3252;52.540;13.290;2022-11-03T04:52:47;7.60;99.90
6439;DHT22;3252;52.540;13.290;2022-11-03T04:54:51;7.60;99.90
6439;DHT22;3252;52.540;13.290;2022-11-03T04:56:54;7.60;99.90
6439;DHT22;3252;52.540;13.290;2022-11-03T04:58:57;7.70;99.90
6439;DHT22;3252;52.540;13.290;2022-11-03T05:01:00;7.60;99.90
6439;DHT22;3252;52.540;13.290;2022-11-03T05:03:03;7.60;99.90
6439;DHT22;3252;52.540;13.290;2022-11-03T05:05:14;7.70;99.90
6439;DHT22;3252;52.540;13.290;2022-11-03T05:07:24;7.70;99.90
6439;DHT22;3252;52.540;13.290;2022-11-03T05:09:29;7.70;99.90
6439;DHT22;3252;52.540;13.290;2022-11-03T05:11:34;7.80;99.90
6439;DHT22;3252;52.540;13.290;2022-11-03T05:13:36;7.80;99.90
6439;DHT22;3252;52.540;13.290;2022-11-03T05:15:42;7.70;99.90
6439;DHT22;3252;52.540;13.290;2022-11-03T05:17:44;7.70;99.90
6439;DHT22;3252;52.540;13.290;2022-11-03T05:19:46;7.70;99.90
6439;DHT22;3252;52.540;13.290;2022-11-03T05:21:49;7.70;99.90
6439;DHT22;3252;52.540;13.290;2022-11-03T05:23:56;7.70;99.90
6439;DHT22;3252;52.540;13.290;2022-11-03T05:25:59;7.70;99.90
6439;DHT22;3252;52.540;13.290;2022-11-03T05:28:01;7.70;99.90
6439;DHT22;3252;52.540;13.290;2022-11-03T05:30:04;7.70;99.90
6439;DHT22;3252;52.540;13.290;2022-11-03T05:32:10;7.70;99.90
6439;DHT22;3252;52.540;13.290;2022-11-03T05:34:28;7.70;99.90
6439;DHT22;3252;52.540;13.290;2022-11-03T05:36:32;7.70;99.90
6439;DHT22;3252;52.540;13.290;2022-11-03T05:38:34;7.70;99.90
6439;DHT22;3252;52.540;13.290;2022-11-03T05:40:38;7.70;99.90
6439;DHT22;3252;52.540;13.290;2022-11-03T05:42:42;7.60;99.90
6439;DHT22;3252;52.540;13.290;2022-11-03T05:44:45;7.70;99.90
6439;DHT22;3252;52.540;13.290;2022-11-03T05:46:47;7.60;99.90
6439;DHT22;3252;52.540;13.290;2022-11-03T05:48:49;7.70;99.90
6439;DHT22;3252;52.540;13.290;2022-11-03T05:50:52;7.60;99.90
6439;DHT22;3252;52.540;13.290;2022-11-03T05:52:58;7.60;99.90
6439;DHT22;3252;52.540;13.290;2022-11-03T05:55:01;7.60;99.90
6439;DHT22;3252;52.540;13.290;2022-11-03T05:57:09;7.70;99.90
6439;DHT22;3252;52.540;13.290;2022-11-03T05:59:13;7.70;99.90
6439;DHT22;3252;52.540;13.290;2022-11-03T06:01:19;7.70;99.90
6439;DHT22;3252;52.540;13.290;2022-11-03T06:03:26;7.70;99.90
6439;DHT22;3252;52.540;13.290;2022-11-03T06:05:30;7.70;99.90
6439;DHT22;3252;52.540;13.290;2022-11-03T06:07:33;7.70;99.90
6439;DHT22;3252;52.540;13.290;2022-11-03T06:09:35;7.70;99.90
6439;DHT22;3252;52.540;13.290;2022-11-03T06:11:37;7.70;99.90
6439;DHT22;3252;52.540;13.290;2022-11-03T06:13:41;7.70;99.90
6439;DHT22;3252;52.540;13.290;2022-11-03T06:15:45;7.70;99.90
6439;DHT22;3252;52.540;13.290;2022-11-03T06:17:48;7.70;99.90
6439;DHT22;3252;52.540;13.290;2022-11-03T06:19:53;7.70;99.90
6439;DHT22;3252;52.540;13.290;2022-11-03T06:21:57;7.70;99.90
6439;DHT22;3252;52.540;13.290;2022-11-03T06:24:03;7.70;99.90
6439;DHT22;3252;52.540;13.290;2022-11-03T06:26:13;7.70;99.90
6439;DHT22;3252;52.540;13.290;2022-11-03T06:28:21;7.60;99.90
6439;DHT22;3252;52.540;13.290;2022-11-03T06:30:28;7.60;99.90
6439;DHT22;3252;52.540;13.290;2022-11-03T06:32:32;7.60;99.90
6439;DHT22;3252;52.540;13.290;2022-11-03T06:34:37;7.60;99.90
6439;DHT22;3252;52.540;13.290;2022-11-03T06:36:42;7.50;99.90
6439;DHT22;3252;52.540;13.290;2022-11-03T06:38:46;7.50;99.90
6439;DHT22;3252;52.540;13.290;2022-11-03T06:40:50;7.50;99.90
6439;DHT22;3252;52.540;13.290;2022-11-03T06:42:53;7.50;99.90
6439;DHT22;3252;52.540;13.290;2022-11-03T06:44:58;7.40;99.90
6439;DHT22;3252;52.540;13.290;2022-11-03T06:47:15;7.40;99.90
6439;DHT22;3252;52.540;13.290;2022-11-03T06:49:26;7.40;99.90
6439;DHT22;3252;52.540;13.290;2022-11-03T06:51:30;7.40;99.90
6439;DHT22;3252;52.540;13.290;2022-11-03T06:53:35;7.40;99.90
6439;DHT22;3252;52.540;13.290;2022-11-03T06:55:39;7.40;99.90
6439;DHT22;3252;52.540;13.290;2022-11-03T06:57:43;7.40;99.90
6439;DHT22;3252;52.540;13.290;2022-11-03T06:59:46;7.40;99.90
6439;DHT22;3252;52.540;13.290;2022-11-03T07:01:53;7.40;99.90
6439;DHT22;3252;52.540;13.290;2022-11-03T07:03:59;7.50;99.90
6439;DHT22;3252;52.540;13.290;2022-11-03T07:06:16;7.50;99.90
6439;DHT22;3252;52.540;13.290;2022-11-03T07:08:25;7.50;99.90
6439;DHT22;3252;52.540;13.290;2022-11-03T07:10:29;7.60;99.90
6439;DHT22;3252;52.540;13.290;2022-11-03T07:12:31;7.70;99.90
6439;DHT22;3252;52.540;13.290;2022-11-03T07:14:33;7.70;99.90
6439;DHT22;3252;52.540;13.290;2022-11-03T07:16:37;7.80;99.90
6439;DHT22;3252;52.540;13.290;2022-11-03T07:18:42;8.10;99.90
6439;DHT22;3252;52.540;13.290;2022-11-03T07:20:46;8.50;99.90
6439;DHT22;3252;52.540;13.290;2022-11-03T07:22:50;8.80;99.90
6439;DHT22;3252;52.540;13.290;2022-11-03T07:24:54;8.90;99.90
6439;DHT22;3252;52.540;13.290;2022-11-03T07:27:01;9.00;99.90
6439;DHT22;3252;52.540;13.290;2022-11-03T07:29:09;9.20;99.90
6439;DHT22;3252;52.540;13.290;2022-11-03T07:31:15;9.20;99.90
6439;DHT22;3252;52.540;13.290;2022-11-03T07:33:22;9.30;99.90
6439;DHT22;3252;52.540;13.290;2022-11-03T07:35:32;9.30;99.90
6439;DHT22;3252;52.540;13.290;2022-11-03T07:37:36;9.40;99.90
6439;DHT22;3252;52.540;13.290;2022-11-03T07:39:38;9.40;99.90
6439;DHT22;3252;52.540;13.290;2022-11-03T07:41:40;9.40;99.90
6439;DHT22;3252;52.540;13.290;2022-11-03T07:43:52;9.50;99.90
6439;DHT22;3252;52.540;13.290;2022-11-03T07:45:56;9.50;99.90
6439;DHT22;3252;52.540;13.290;2022-11-03T07:48:00;9.60;99.90
6439;DHT22;3252;52.540;13.290;2022-11-03T07:50:12;9.70;99.90
6439;DHT22;3252;52.540;13.290;2022-11-03T07:52:19;9.70;99.90
6439;DHT22;3252;52.540;13.290;2022-11-03T07:54:28;9.70;99.90
6439;DHT22;3252;52.540;13.290;2022-11-03T07:56:33;9.80;99.90
6439;DHT22;3252;52.540;13.290;2022-11-03T07:58:37;9.70;99.90
6439;DHT22;3252;52.540;13.290;2022-11-03T08:00:40;9.80;99.90
6439;DHT22;3252;52.540;13.290;2022-11-03T08:02:47;9.70;99.90
6439;DHT22;3252;52.540;13.290;2022-11-03T08:04:49;9.70;99.90
6439;DHT22;3252;52.540;13.290;2022-11-03T08:06:51;9.60;99.90
6439;DHT22;3252;52.540;13.290;2022-11-03T08:08:53;9.60;99.90
6439;DHT22;3252;52.540;13.290;2022-11-03T08:10:57;9.60;99.90
6439;DHT22;3252;52.540;13.290;2022-11-03T08:12:59;9.70;99.90
6439;DHT22;3252;52.540;13.290;2022-11-03T08:15:00;9.70;99.90
6439;DHT22;3252;52.540;13.290;2022-11-03T08:17:03;9.80;99.90
6439;DHT22;3252;52.540;13.290;2022-11-03T08:19:06;9.90;99.90
6439;DHT22;3252;52.540;13.290;2022-11-03T08:21:08;10.00;99.90
6439;DHT22;3252;52.540;13.290;2022-11-03T08:23:10;10.00;99.90
6439;DHT22;3252;52.540;13.290;2022-11-03T08:25:12;9.90;99.90
6439;DHT22;3252;52.540;13.290;2022-11-03T08:27:15;10.00;99.90
6439;DHT22;3252;52.540;13.290;2022-11-03T08:29:19;10.10;99.90
6439;DHT22;3252;52.540;13.290;2022-11-03T08:31:21;10.20;99.90
6439;DHT22;3252;52.540;13.290;2022-11-03T08:33:22;10.30;99.90
6439;DHT22;3252;52.540;13.290;2022-11-03T08:35:24;10.40;99.90
6439;DHT22;3252;52.540;13.290;2022-11-03T08:37:27;10.50;99.90
6439;DHT22;3252;52.540;13.290;2022-11-03T08:39:29;10.50;99.90
6439;DHT22;3252;52.540;13.290;2022-11-03T08:41:31;10.50;99.90
6439;DHT22;3252;52.540;13.290;2022-11-03T08:43:35;10.90;99.90
6439;DHT22;3252;52.540;13.290;2022-11-03T08:45:37;11.10;99.90
6439;DHT22;3252;52.540;13.290;2022-11-03T08:47:39;11.30;99.90
6439;DHT22;3252;52.540;13.290;2022-11-03T08:49:41;11.60;99.90
6439;DHT22;3252;52.540;13.290;2022-11-03T08:51:43;11.60;99.90
6439;DHT22;3252;52.540;13.290;2022-11-03T08:53:45;11.70;99.90
6439;DHT22;3252;52.540;13.290;2022-11-03T08:55:50;11.90;99.90
6439;DHT22;3252;52.540;13.290;2022-11-03T08:57:52;11.70;99.90
6439;DHT22;3252;52.540;13.290;2022-11-03T08:59:56;11.50;99.90
6439;DHT22;3252;52.540;13.290;2022-11-03T09:01:58;11.30;99.90
6439;DHT22;3252;52.540;13.290;2022-11-03T09:04:00;11.30;99.90
6439;DHT22;3252;52.540;13.290;2022-11-03T09:06:03;11.30;99.90
6439;DHT22;3252;52.540;13.290;2022-11-03T09:08:05;11.30;99.90
6439;DHT22;3252;52.540;13.290;2022-11-03T09:10:09;11.30;99.90
6439;DHT22;3252;52.540;13.290;2022-11-03T09:12:11;11.30;99.90
6439;DHT22;3252;52.540;13.290;2022-11-03T09:14:13;11.20;99.90
6439;DHT22;3252;52.540;13.290;2022-11-03T09:16:16;11.20;99.90
6439;DHT22;3252;52.540;13.290;2022-11-03T09:18:18;11.20;99.90
6439;DHT22;3252;52.540;13.290;2022-11-03T09:20:21;11.20;99.90
6439;DHT22;3252;52.540;13.290;2022-11-03T09:22:24;11.20;99.90
6439;DHT22;3252;52.540;13.290;2022-11-03T09:24:26;11.30;99.90
6439;DHT22;3252;52.540;13.290;2022-11-03T09:26:28;11.40;99.90
6439;DHT22;3252;52.540;13.290;2022-11-03T09:28:30;11.40;99.90
6439;DHT22;3252;52.540;13.290;2022-11-03T09:30:32;11.40;99.90
6439;DHT22;3252;52.540;13.290;2022-11-03T09:32:36;11.40;99.90
6439;DHT22;3252;52.540;13.290;2022-11-03T09:34:38;11.30;99.90
6439;DHT22;3252;52.540;13.290;2022-11-03T09:36:40;11.30;99.90
6439;DHT22;3252;52.540;13.290;2022-11-03T09:38:42;11.40;99.90
6439;DHT22;3252;52.540;13.290;2022-11-03T09:40:44;11.40;99.90
6439;DHT22;3252;52.540;13.290;2022-11-03T09:42:46;11.50;99.90
6439;DHT22;3252;52.540;13.290;2022-11-03T09:44:48;11.50;99.90
6439;DHT22;3252;52.540;13.290;2022-11-03T09:46:51;11.60;99.90
6439;DHT22;3252;52.540;13.290;2022-11-03T09:48:55;11.60;99.90
6439;DHT22;3252;52.540;13.290;2022-11-03T09:50:57;11.60;99.90
6439;DHT22;3252;52.540;13.290;2022-11-03T09:52:59;11.60;99.90
6439;DHT22;3252;52.540;13.290;2022-11-03T09:55:02;11.70;99.90
6439;DHT22;3252;52.540;13.290;2022-11-03T09:57:09;11.70;99.90
6439;DHT22;3252;52.540;13.290;2022-11-03T09:59:14;11.70;99.90
6439;DHT22;3252;52.540;13.290;2022-11-03T10:01:17;11.90;99.90
6439;DHT22;3252;52.540;13.290;2022-11-03T10:03:19;11.90;99.60
6439;DHT22;3252;52.540;13.290;2022-11-03T10:05:25;11.90;99.50
6439;DHT22;3252;52.540;13.290;2022-11-03T10:07:29;11.90;99.30
6439;DHT22;3252;52.540;13.290;2022-11-03T10:09:31;12.00;99.40
6439;DHT22;3252;52.540;13.290;2022-11-03T10:11:35;12.10;99.60
6439;DHT22;3252;52.540;13.290;2022-11-03T10:13:40;12.10;99.30
6439;DHT22;3252;52.540;13.290;2022-11-03T10:15:43;12.30;99.10
6439;DHT22;3252;52.540;13.290;2022-11-03T10:17:45;12.30;98.80
6439;DHT22;3252;52.540;13.290;2022-11-03T10:19:51;12.40;98.70
6439;DHT22;3252;52.540;13.290;2022-11-03T10:21:55;12.50;98.70
6439;DHT22;3252;52.540;13.290;2022-11-03T10:23:57;12.50;98.30
6439;DHT22;3252;52.540;13.290;2022-11-03T10:26:07;12.40;98.30
6439;DHT22;3252;52.540;13.290;2022-11-03T10:28:16;12.60;98.30
6439;DHT22;3252;52.540;13.290;2022-11-03T10:30:19;12.60;98.20
6439;DHT22;3252;52.540;13.290;2022-11-03T10:32:28;12.60;98.00
6439;DHT22;3252;52.540;13.290;2022-11-03T10:34:34;12.50;98.10
6439;DHT22;3252;52.540;13.290;2022-11-03T10:36:36;12.50;98.40
6439;DHT22;3252;52.540;13.290;2022-11-03T10:38:40;12.60;98.50
6439;DHT22;3252;52.540;13.290;2022-11-03T10:40:43;12.60;98.30
6439;DHT22;3252;52.540;13.290;2022-11-03T10:42:57;12.70;98.40
6439;DHT22;3252;52.540;13.290;2022-11-03T10:45:09;12.60;98.30
6439;DHT22;3252;52.540;13.290;2022-11-03T10:47:22;12.70;98.40
6439;DHT22;3252;52.540;13.290;2022-11-03T10:49:25;12.70;98.30
6439;DHT22;3252;52.540;13.290;2022-11-03T10:51:28;12.80;98.50
6439;DHT22;3252;52.540;13.290;2022-11-03T10:53:30;12.80;98.40
6439;DHT22;3252;52.540;13.290;2022-11-03T10:55:33;12.70;98.30
6439;DHT22;3252;52.540;13.290;2022-11-03T10:57:36;12.70;98.40
6439;DHT22;3252;52.540;13.290;2022-11-03T10:59:38;12.80;98.70
6439;DHT22;3252;52.540;13.290;2022-11-03T11:01:40;12.80;98.70
6439;DHT22;3252;52.540;13.290;2022-11-03T11:03:43;12.90;98.70
6439;DHT22;3252;52.540;13.290;2022-11-03T11:05:46;12.90;99.00
6439;DHT22;3252;52.540;13.290;2022-11-03T11:07:50;12.80;98.40
6439;DHT22;3252;52.540;13.290;2022-11-03T11:09:53;12.80;98.40
6439;DHT22;3252;52.540;13.290;2022-11-03T11:12:01;12.80;98.50
6439;DHT22;3252;52.540;13.290;2022-11-03T11:14:20;12.80;98.70
6439;DHT22;3252;52.540;13.290;2022-11-03T11:16:48;12.80;98.50
6439;DHT22;3252;52.540;13.290;2022-11-03T11:19:08;12.90;98.60
6439;DHT22;3252;52.540;13.290;2022-11-03T11:23:48;12.80;98.70
6439;DHT22;3252;52.540;13.290;2022-11-03T11:26:05;12.80;98.70
6439;DHT22;3252;52.540;13.290;2022-11-03T11:28:18;12.80;98.80
6439;DHT22;3252;52.540;13.290;2022-11-03T11:33:40;12.70;99.10
6439;DHT22;3252;52.540;13.290;2022-11-03T11:36:04;12.70;98.80
6439;DHT22;3252;52.540;13.290;2022-11-03T11:41:01;12.70;98.80
6439;DHT22;3252;52.540;13.290;2022-11-03T11:43:26;12.70;98.90
6439;DHT22;3252;52.540;13.290;2022-11-03T11:48:15;12.60;98.70
6439;DHT22;3252;52.540;13.290;2022-11-03T11:50:28;12.60;98.90
6439;DHT22;3252;52.540;13.290;2022-11-03T11:52:31;12.60;98.80
6439;DHT22;3252;52.540;13.290;2022-11-03T11:54:35;12.70;99.00
6439;DHT22;3252;52.540;13.290;2022-11-03T11:56:41;12.70;99.30
6439;DHT22;3252;52.540;13.290;2022-11-03T11:58:46;12.80;98.90
6439;DHT22;3252;52.540;13.290;2022-11-03T12:00:54;12.80;98.90
6439;DHT22;3252;52.540;13.290;2022-11-03T12:02:58;12.80;99.00
6439;DHT22;3252;52.540;13.290;2022-11-03T12:05:00;12.80;99.10
6439;DHT22;3252;52.540;13.290;2022-11-03T12:07:03;12.80;98.70
6439;DHT22;3252;52.540;13.290;2022-11-03T12:09:06;12.80;98.60
6439;DHT22;3252;52.540;13.290;2022-11-03T12:11:10;12.80;98.60
6439;DHT22;3252;52.540;13.290;2022-11-03T12:13:34;12.80;98.80
6439;DHT22;3252;52.540;13.290;2022-11-03T12:15:56;12.80;98.40
6439;DHT22;3252;52.540;13.290;2022-11-03T12:17:58;12.80;98.40
6439;DHT22;3252;52.540;13.290;2022-11-03T12:20:05;12.70;98.40
6439;DHT22;3252;52.540;13.290;2022-11-03T12:22:50;12.80;98.60
6439;DHT22;3252;52.540;13.290;2022-11-03T12:24:53;12.80;98.60
6439;DHT22;3252;52.540;13.290;2022-11-03T12:26:56;12.80;98.60
6439;DHT22;3252;52.540;13.290;2022-11-03T12:28:58;12.80;98.70
6439;DHT22;3252;52.540;13.290;2022-11-03T12:31:00;12.80;98.60
6439;DHT22;3252;52.540;13.290;2022-11-03T12:33:02;12.80;98.70
6439;DHT22;3252;52.540;13.290;2022-11-03T12:35:06;12.90;98.80
6439;DHT22;3252;52.540;13.290;2022-11-03T12:37:08;12.90;98.90
6439;DHT22;3252;52.540;13.290;2022-11-03T12:39:12;12.80;99.00
6439;DHT22;3252;52.540;13.290;2022-11-03T12:41:14;12.80;99.00
6439;DHT22;3252;52.540;13.290;2022-11-03T12:43:21;12.80;98.90
6439;DHT22;3252;52.540;13.290;2022-11-03T12:45:23;12.90;99.00
6439;DHT22;3252;52.540;13.290;2022-11-03T12:47:25;12.80;98.90
6439;DHT22;3252;52.540;13.290;2022-11-03T12:49:27;12.90;98.90
6439;DHT22;3252;52.540;13.290;2022-11-03T12:51:30;12.90;99.00
6439;DHT22;3252;52.540;13.290;2022-11-03T12:53:31;12.90;98.80
6439;DHT22;3252;52.540;13.290;2022-11-03T12:55:35;12.90;98.90
6439;DHT22;3252;52.540;13.290;2022-11-03T12:57:37;12.80;99.10
6439;DHT22;3252;52.540;13.290;2022-11-03T12:59:39;12.80;99.10
6439;DHT22;3252;52.540;13.290;2022-11-03T13:01:41;12.80;99.10
6439;DHT22;3252;52.540;13.290;2022-11-03T13:03:43;12.80;99.10
6439;DHT22;3252;52.540;13.290;2022-11-03T13:05:45;12.80;99.00
6439;DHT22;3252;52.540;13.290;2022-11-03T13:07:48;12.80;99.00
6439;DHT22;3252;52.540;13.290;2022-11-03T13:09:50;12.80;99.20
6439;DHT22;3252;52.540;13.290;2022-11-03T13:11:54;12.80;99.20
6439;DHT22;3252;52.540;13.290;2022-11-03T13:14:13;12.70;99.30
6439;DHT22;3252;52.540;13.290;2022-11-03T13:16:15;12.70;99.40
6439;DHT22;3252;52.540;13.290;2022-11-03T13:18:17;12.70;99.50
6439;DHT22;3252;52.540;13.290;2022-11-03T13:20:19;12.70;99.60
6439;DHT22;3252;52.540;13.290;2022-11-03T13:22:21;12.70;99.60
6439;DHT22;3252;52.540;13.290;2022-11-03T13:24:23;12.80;99.70
6439;DHT22;3252;52.540;13.290;2022-11-03T13:26:26;12.80;99.80
6439;DHT22;3252;52.540;13.290;2022-11-03T13:28:29;12.80;99.70
6439;DHT22;3252;52.540;13.290;2022-11-03T13:30:31;12.90;99.80
6439;DHT22;3252;52.540;13.290;2022-11-03T13:32:34;13.00;99.70
6439;DHT22;3252;52.540;13.290;2022-11-03T13:34:37;13.00;99.60
6439;DHT22;3252;52.540;13.290;2022-11-03T13:36:38;13.00;99.50
6439;DHT22;3252;52.540;13.290;2022-11-03T13:38:40;13.00;99.40
6439;DHT22;3252;52.540;13.290;2022-11-03T13:40:42;13.00;99.90